sensor_id;sensor_type;location;lat;lon;timestamp;temperature;humidity
67165;SHT31;54093;50.014;19.984;2023-04-01T00:04:26;11.22;63.86
67165;SHT31;54093;50.014;19.984;2023-04-01T00:13:47;11.13;64.52
67165;SHT31;54093;50.014;19.984;2023-04-01T00:23:08;11.04;64.81
67165;SHT31;54093;50.014;19.984;2023-04-01T00:32:29;11.03;65.21
67165;SHT31;54093;50.014;19.984;2023-04-01T00:41:51;10.89;65.93
67165;SHT31;54093;50.014;19.984;2023-04-01T00:51:16;10.79;66.37
67165;SHT31;54093;50.014;19.984;2023-04-01T01:00:37;10.72;66.82
67165;SHT31;54093;50.014;19.984;2023-04-01T01:30:04;10.64;67.44
67165;SHT31;54093;50.014;19.984;2023-04-01T01:39:31;10.63;67.64
67165;SHT31;54093;50.014;19.984;2023-04-01T01:48:55;10.66;67.48
67165;SHT31;54093;50.014;19.984;2023-04-01T01:58:27;10.59;67.80
67165;SHT31;54093;50.014;19.984;2023-04-01T02:07:55;10.56;67.97
67165;SHT31;54093;50.014;19.984;2023-04-01T02:17:20;10.53;68.02
67165;SHT31;54093;50.014;19.984;2023-04-01T02:26:41;10.52;68.24
67165;SHT31;54093;50.014;19.984;2023-04-01T02:36:04;10.39;68.59
67165;SHT31;54093;50.014;19.984;2023-04-01T02:45:25;10.34;68.75
67165;SHT31;54093;50.014;19.984;2023-04-01T02:54:46;10.38;68.68
67165;SHT31;54093;50.014;19.984;2023-04-01T03:04:06;10.26;68.99
67165;SHT31;54093;50.014;19.984;2023-04-01T03:13:27;10.25;69.04
67165;SHT31;54093;50.014;19.984;2023-04-01T03:22:48;10.28;68.93
67165;SHT31;54093;50.014;19.984;2023-04-01T03:32:09;10.28;69.08
67165;SHT31;54093;50.014;19.984;2023-04-01T03:41:30;10.24;69.43
67165;SHT31;54093;50.014;19.984;2023-04-01T03:50:51;10.22;69.52
67165;SHT31;54093;50.014;19.984;2023-04-01T04:00:12;10.26;69.32
67165;SHT31;54093;50.014;19.984;2023-04-01T04:09:33;10.22;69.56
67165;SHT31;54093;50.014;19.984;2023-04-01T04:18:54;10.19;69.72
67165;SHT31;54093;50.014;19.984;2023-04-01T04:28:14;10.25;69.66
67165;SHT31;54093;50.014;19.984;2023-04-01T04:37:35;10.25;69.78
67165;SHT31;54093;50.014;19.984;2023-04-01T04:46:56;10.29;69.73
67165;SHT31;54093;50.014;19.984;2023-04-01T04:56:18;10.28;69.83
67165;SHT31;54093;50.014;19.984;2023-04-01T05:05:51;10.35;69.69
67165;SHT31;54093;50.014;19.984;2023-04-01T05:15:12;10.31;69.85
67165;SHT31;54093;50.014;19.984;2023-04-01T05:24:34;10.43;69.82
67165;SHT31;54093;50.014;19.984;2023-04-01T05:33:55;10.41;70.84
67165;SHT31;54093;50.014;19.984;2023-04-01T05:43:16;10.34;71.28
67165;SHT31;54093;50.014;19.984;2023-04-01T05:52:37;10.50;71.26
67165;SHT31;54093;50.014;19.984;2023-04-01T06:01:58;10.55;70.96
67165;SHT31;54093;50.014;19.984;2023-04-01T06:11:31;10.57;70.98
67165;SHT31;54093;50.014;19.984;2023-04-01T06:30:43;10.74;70.69
67165;SHT31;54093;50.014;19.984;2023-04-01T06:40:44;10.83;70.15
67165;SHT31;54093;50.014;19.984;2023-04-01T06:59:32;11.17;68.83
67165;SHT31;54093;50.014;19.984;2023-04-01T07:08:55;11.28;68.13
67165;SHT31;54093;50.014;19.984;2023-04-01T07:28:05;11.45;67.33
67165;SHT31;54093;50.014;19.984;2023-04-01T07:37:57;11.46;67.29
67165;SHT31;54093;50.014;19.984;2023-04-01T07:57:37;11.73;66.03
67165;SHT31;54093;50.014;19.984;2023-04-01T08:07:07;11.78;65.62
67165;SHT31;54093;50.014;19.984;2023-04-01T08:35:51;12.14;64.73
67165;SHT31;54093;50.014;19.984;2023-04-01T08:55:15;12.36;63.85
67165;SHT31;54093;50.014;19.984;2023-04-01T10:32:19;12.48;65.78
67165;SHT31;54093;50.014;19.984;2023-04-01T10:42:14;12.47;65.78
67165;SHT31;54093;50.014;19.984;2023-04-01T11:31:37;12.91;65.12
67165;SHT31;54093;50.014;19.984;2023-04-01T11:41:23;13.57;62.43
67165;SHT31;54093;50.014;19.984;2023-04-01T11:51:07;14.02;59.92
67165;SHT31;54093;50.014;19.984;2023-04-01T12:10:21;13.12;67.02
67165;SHT31;54093;50.014;19.984;2023-04-01T12:19:52;13.94;62.55
67165;SHT31;54093;50.014;19.984;2023-04-01T12:29:50;13.81;61.78
67165;SHT31;54093;50.014;19.984;2023-04-01T13:08:22;13.42;62.67
67165;SHT31;54093;50.014;19.984;2023-04-01T13:17:52;13.43;64.36
67165;SHT31;54093;50.014;19.984;2023-04-01T13:27:34;13.67;62.69
67165;SHT31;54093;50.014;19.984;2023-04-01T14:07:13;12.55;67.88
67165;SHT31;54093;50.014;19.984;2023-04-01T14:17:03;12.69;66.99
67165;SHT31;54093;50.014;19.984;2023-04-01T14:45:45;12.75;67.90
67165;SHT31;54093;50.014;19.984;2023-04-01T14:55:34;12.57;69.22
67165;SHT31;54093;50.014;19.984;2023-04-01T15:05:13;12.52;69.43
67165;SHT31;54093;50.014;19.984;2023-04-01T15:24:34;12.52;70.38
67165;SHT31;54093;50.014;19.984;2023-04-01T15:34:21;12.47;70.62
67165;SHT31;54093;50.014;19.984;2023-04-01T15:43:46;12.30;72.40
67165;SHT31;54093;50.014;19.984;2023-04-01T15:53:59;12.09;73.44
67165;SHT31;54093;50.014;19.984;2023-04-01T16:41:36;11.54;74.88
67165;SHT31;54093;50.014;19.984;2023-04-01T16:51:04;11.32;76.12
67165;SHT31;54093;50.014;19.984;2023-04-01T17:00:44;11.17;76.47
67165;SHT31;54093;50.014;19.984;2023-04-01T17:20:19;10.85;74.85
67165;SHT31;54093;50.014;19.984;2023-04-01T17:59:23;10.46;75.82
67165;SHT31;54093;50.014;19.984;2023-04-01T18:19:03;10.42;76.15
67165;SHT31;54093;50.014;19.984;2023-04-01T18:28:38;10.36;76.55
67165;SHT31;54093;50.014;19.984;2023-04-01T18:47:47;10.34;76.63
67165;SHT31;54093;50.014;19.984;2023-04-01T18:57:13;10.22;77.43
67165;SHT31;54093;50.014;19.984;2023-04-01T19:06:48;10.15;77.22
67165;SHT31;54093;50.014;19.984;2023-04-01T19:25:58;10.15;78.04
67165;SHT31;54093;50.014;19.984;2023-04-01T19:35:27;10.04;78.49
67165;SHT31;54093;50.014;19.984;2023-04-01T20:14:24;9.87;80.27
67165;SHT31;54093;50.014;19.984;2023-04-01T20:33:35;9.85;80.88
67165;SHT31;54093;50.014;19.984;2023-04-01T20:43:14;9.71;81.43
67165;SHT31;54093;50.014;19.984;2023-04-01T20:52:42;9.71;81.48
67165;SHT31;54093;50.014;19.984;2023-04-01T21:02:16;9.70;81.88
67165;SHT31;54093;50.014;19.984;2023-04-01T21:31:36;9.58;82.53
67165;SHT31;54093;50.014;19.984;2023-04-01T21:41:54;9.60;82.33
67165;SHT31;54093;50.014;19.984;2023-04-01T22:00:46;9.58;82.05
67165;SHT31;54093;50.014;19.984;2023-04-01T22:10:44;9.57;81.94
67165;SHT31;54093;50.014;19.984;2023-04-01T22:20:33;9.53;82.05
67165;SHT31;54093;50.014;19.984;2023-04-01T22:49:05;9.51;81.99
67165;SHT31;54093;50.014;19.984;2023-04-01T22:58:32;9.50;81.82
67165;SHT31;54093;50.014;19.984;2023-04-01T23:17:38;9.47;82.29
67165;SHT31;54093;50.014;19.984;2023-04-01T23:27:11;9.50;82.04
67165;SHT31;54093;50.014;19.984;2023-04-01T23:36:38;9.47;82.28
67165;SHT31;54093;50.014;19.984;2023-04-01T23:46:02;9.47;82.32
67165;SHT31;54093;50.014;19.984;2023-04-01T23:55:31;9.49;81.99
